createdAt,value
2023-03-27T00:01:14.927Z,3.97
2023-03-27T00:03:42.735Z,2.92
2023-03-27T00:06:11.804Z,3.42
2023-03-27T00:08:38.940Z,4.28
2023-03-27T00:11:07.062Z,4.30
2023-03-27T00:13:34.129Z,3.78
2023-03-27T00:16:02.672Z,3.15
2023-03-27T00:18:29.754Z,2.92
2023-03-27T00:21:00.830Z,3.65
2023-03-27T00:23:31.293Z,3.13
2023-03-27T00:25:58.533Z,2.92
2023-03-27T00:28:29.372Z,3.22
2023-03-27T00:30:56.907Z,3.13
2023-03-27T00:33:24.783Z,2.78
2023-03-27T00:35:51.994Z,2.75
2023-03-27T00:38:19.149Z,3.05
2023-03-27T00:40:50.840Z,2.95
2023-03-27T00:43:19.166Z,3.85
2023-03-27T00:45:47.084Z,2.65
2023-03-27T00:48:14.142Z,2.58
2023-03-27T00:50:41.834Z,2.53
2023-03-27T00:53:10.712Z,2.05
2023-03-27T00:55:38.379Z,2.47
2023-03-27T00:58:10.365Z,2.83
2023-03-27T01:00:37.463Z,2.75
2023-03-27T01:03:06.532Z,2.83
2023-03-27T01:05:34.149Z,2.28
2023-03-27T01:08:01.911Z,2.05
2023-03-27T01:10:39.121Z,2.60
2023-03-27T01:13:06.120Z,2.40
2023-03-27T01:15:33.176Z,3.63
2023-03-27T01:18:10.714Z,2.10
2023-03-27T01:20:44.815Z,2.28
2023-03-27T01:23:58.561Z,3.33
2023-03-27T01:26:35.999Z,2.13
2023-03-27T01:29:22.357Z,2.40
2023-03-27T01:32:08.285Z,2.08
2023-03-27T01:34:44.928Z,2.25
2023-03-27T01:37:14.825Z,2.40
2023-03-27T01:39:44.726Z,2.00
2023-03-27T01:42:38.062Z,2.33
2023-03-27T01:45:06.852Z,2.60
2023-03-27T01:47:43.179Z,2.05
2023-03-27T01:50:19.397Z,2.17
2023-03-27T01:52:48.527Z,2.38
2023-03-27T01:55:18.989Z,2.15
2023-03-27T01:57:50.155Z,2.33
2023-03-27T02:00:20.539Z,2.28
2023-03-27T02:02:54.918Z,1.90
2023-03-27T02:05:32.387Z,1.95
2023-03-27T02:08:04.941Z,2.47
2023-03-27T02:10:33.299Z,2.30
2023-03-27T02:13:02.197Z,2.22
2023-03-27T02:15:34.098Z,2.40
2023-03-27T02:18:05.224Z,2.10
2023-03-27T02:20:33.330Z,2.17
2023-03-27T02:23:00.691Z,2.42
2023-03-27T02:25:28.913Z,2.78
2023-03-27T02:28:03.932Z,2.28
2023-03-27T02:30:32.926Z,2.30
2023-03-27T02:33:08.941Z,2.38
2023-03-27T02:35:54.804Z,2.60
2023-03-27T02:39:00.701Z,1.98
2023-03-27T02:41:31.447Z,2.70
2023-03-27T02:44:01.581Z,2.20
2023-03-27T02:46:36.547Z,2.47
2023-03-27T02:49:04.691Z,2.63
2023-03-27T02:51:40.366Z,2.85
2023-03-27T02:54:09.329Z,2.28
2023-03-27T02:56:39.406Z,2.50
2023-03-27T02:59:08.785Z,2.30
2023-03-27T03:01:36.104Z,2.15
2023-03-27T03:04:18.615Z,2.88
2023-03-27T03:06:45.725Z,2.65
2023-03-27T03:09:14.733Z,2.00
2023-03-27T03:11:48.352Z,2.40
2023-03-27T03:14:15.644Z,2.75
2023-03-27T03:16:42.820Z,2.42
2023-03-27T03:19:10.030Z,2.72
2023-03-27T03:21:37.641Z,2.75
2023-03-27T03:24:04.948Z,3.97
2023-03-27T03:26:32.168Z,2.80
2023-03-27T03:29:00.487Z,2.00
2023-03-27T03:31:44.408Z,2.40
2023-03-27T03:34:16.215Z,2.22
2023-03-27T03:36:44.717Z,2.60
2023-03-27T03:39:12.610Z,3.47
2023-03-27T03:41:40.007Z,2.30
2023-03-27T03:44:07.080Z,2.40
2023-03-27T03:46:34.187Z,2.22
2023-03-27T03:49:01.330Z,2.60
2023-03-27T03:51:28.533Z,2.20
2023-03-27T03:53:55.816Z,2.72
2023-03-27T03:56:22.914Z,2.70
2023-03-27T03:58:49.956Z,2.58
2023-03-27T04:01:20.699Z,3.10
2023-03-27T04:03:48.336Z,2.10
2023-03-27T04:06:17.628Z,2.40
2023-03-27T04:08:47.770Z,2.90
2023-03-27T04:11:14.889Z,2.45
2023-03-27T04:13:42.286Z,2.28
2023-03-27T04:16:09.516Z,3.20
2023-03-27T04:18:39.353Z,2.70
2023-03-27T04:21:06.715Z,1.75
2023-03-27T04:23:33.884Z,2.58
2023-03-27T04:26:01.856Z,2.83
2023-03-27T04:28:30.380Z,2.50
2023-03-27T04:30:58.288Z,2.58
2023-03-27T04:33:25.733Z,2.50
2023-03-27T04:36:05.312Z,4.28
2023-03-27T04:38:39.194Z,2.20
2023-03-27T04:41:06.336Z,2.50
2023-03-27T04:43:36.665Z,2.97
2023-03-27T04:46:07.148Z,2.35
2023-03-27T04:48:34.979Z,2.88
2023-03-27T04:51:02.064Z,2.25
2023-03-27T04:53:30.237Z,2.65
2023-03-27T04:55:57.595Z,2.55
2023-03-27T04:58:25.790Z,1.83
2023-03-27T05:00:55.934Z,2.97
2023-03-27T05:05:51.064Z,1.95
2023-03-27T05:08:18.474Z,2.80
2023-03-27T05:10:45.758Z,2.70
2023-03-27T05:13:12.868Z,2.50
2023-03-27T05:15:40.017Z,2.42
2023-03-27T05:18:07.489Z,2.40
2023-03-27T05:20:34.708Z,2.63
2023-03-27T05:23:01.967Z,2.35
2023-03-27T05:25:29.227Z,2.97
2023-03-27T05:27:56.355Z,3.05
2023-03-27T05:30:24.212Z,2.90
2023-03-27T05:32:54.461Z,2.70
2023-03-27T05:35:23.139Z,3.40
2023-03-27T05:37:51.075Z,2.92
2023-03-27T05:40:21.872Z,3.47
2023-03-27T05:42:49.707Z,3.25
2023-03-27T05:45:17.050Z,3.33
2023-03-27T05:47:47.358Z,2.80
2023-03-27T05:50:15.108Z,3.35
2023-03-27T05:52:42.248Z,3.40
2023-03-27T05:55:10.345Z,2.55
2023-03-27T05:57:38.273Z,2.95
2023-03-27T06:00:13.823Z,2.85
2023-03-27T06:02:43.373Z,2.80
2023-03-27T06:05:12.918Z,2.33
2023-03-27T06:07:42.557Z,2.70
2023-03-27T06:10:13.683Z,2.70
2023-03-27T06:12:41.781Z,2.97
2023-03-27T06:15:09.388Z,2.72
2023-03-27T06:17:36.647Z,3.00
2023-03-27T06:20:11.030Z,2.78
2023-03-27T06:22:48.033Z,2.90
2023-03-27T06:25:15.537Z,2.58
2023-03-27T06:27:43.274Z,2.67
2023-03-27T06:30:11.228Z,2.50
2023-03-27T06:32:38.921Z,2.88
2023-03-27T06:35:08.221Z,2.55
2023-03-27T06:37:36.966Z,2.28
2023-03-27T06:40:09.302Z,2.53
2023-03-27T06:42:36.976Z,2.30
2023-03-27T06:45:05.010Z,2.60
2023-03-27T06:47:36.329Z,2.42
2023-03-27T06:50:06.626Z,2.28
2023-03-27T06:52:33.671Z,2.63
2023-03-27T06:55:00.803Z,2.08
2023-03-27T06:57:27.841Z,1.80
2023-03-27T06:59:54.882Z,2.45
2023-03-27T07:02:21.916Z,2.40
2023-03-27T07:05:01.545Z,2.05
2023-03-27T07:07:32.418Z,2.35
2023-03-27T07:09:59.495Z,2.17
2023-03-27T07:12:26.938Z,2.90
2023-03-27T07:14:54.030Z,2.63
2023-03-27T07:17:21.122Z,2.33
2023-03-27T07:19:48.154Z,2.20
2023-03-27T07:22:15.563Z,2.20
2023-03-27T07:24:42.712Z,2.20
2023-03-27T07:27:09.743Z,1.75
2023-03-27T07:29:37.284Z,2.67
2023-03-27T07:32:08.073Z,1.95
2023-03-27T07:34:36.300Z,2.17
2023-03-27T07:37:03.354Z,1.80
2023-03-27T07:39:30.475Z,2.75
2023-03-27T07:41:57.563Z,1.77
2023-03-27T07:44:24.671Z,1.63
2023-03-27T07:46:54.662Z,2.58
2023-03-27T07:49:39.348Z,1.50
2023-03-27T07:52:09.147Z,2.10
2023-03-27T07:54:36.620Z,1.90
2023-03-27T07:57:05.262Z,2.33
2023-03-27T07:59:32.510Z,2.33
2023-03-27T08:01:59.504Z,2.33
2023-03-27T08:04:27.200Z,2.60
2023-03-27T08:06:54.656Z,3.10
2023-03-27T08:09:22.597Z,3.13
2023-03-27T08:11:50.631Z,2.30
2023-03-27T08:14:17.804Z,2.38
2023-03-27T08:16:44.991Z,2.63
2023-03-27T08:19:12.057Z,3.15
2023-03-27T08:21:39.142Z,3.05
2023-03-27T08:24:07.260Z,3.13
2023-03-27T08:26:34.396Z,2.28
2023-03-27T08:29:01.577Z,2.45
2023-03-27T08:31:30.748Z,2.58
2023-03-27T08:33:58.042Z,2.22
2023-03-27T08:36:25.203Z,1.77
2023-03-27T08:38:55.005Z,2.10
2023-03-27T08:41:27.124Z,2.25
2023-03-27T08:43:56.176Z,2.00
2023-03-27T08:46:26.176Z,2.35
2023-03-27T08:48:56.337Z,1.40
2023-03-27T08:51:25.655Z,1.40
2023-03-27T08:53:55.664Z,1.30
2023-03-27T08:56:22.789Z,1.48
2023-03-27T08:58:49.854Z,1.30
2023-03-27T09:01:20.146Z,1.23
2023-03-27T09:03:53.449Z,1.15
2023-03-27T09:06:20.511Z,1.42
2023-03-27T09:08:53.838Z,1.23
2023-03-27T09:11:23.996Z,1.33
2023-03-27T09:13:51.688Z,1.50
2023-03-27T09:16:21.163Z,1.58
2023-03-27T09:18:50.930Z,1.25
2023-03-27T09:21:19.567Z,1.60
2023-03-27T09:23:46.677Z,1.05
2023-03-27T09:26:14.843Z,1.27
2023-03-27T09:28:50.878Z,1.20
2023-03-27T09:31:30.298Z,1.08
2023-03-27T09:33:58.257Z,1.88
2023-03-27T09:36:25.360Z,1.60
2023-03-27T09:38:52.961Z,1.73
2023-03-27T09:41:21.528Z,2.15
2023-03-27T09:44:06.125Z,1.30
2023-03-27T09:46:33.778Z,1.33
2023-03-27T09:49:05.982Z,1.00
2023-03-27T09:51:49.340Z,1.23
2023-03-27T09:54:17.845Z,0.98
2023-03-27T09:56:46.446Z,1.17
2023-03-27T09:59:24.263Z,1.20
2023-03-27T10:01:52.717Z,0.80
2023-03-27T10:04:20.979Z,1.40
2023-03-27T10:06:59.472Z,1.23
2023-03-27T10:09:27.615Z,1.27
2023-03-27T10:12:08.592Z,1.33
2023-03-27T10:14:36.601Z,1.40
2023-03-27T10:17:04.448Z,1.17
2023-03-27T10:19:33.832Z,1.30
2023-03-27T10:22:01.600Z,1.40
2023-03-27T10:24:33.077Z,1.55
2023-03-27T10:27:01.071Z,1.77
2023-03-27T10:29:29.819Z,1.80
2023-03-27T10:31:57.882Z,1.60
2023-03-27T10:34:29.168Z,1.02
2023-03-27T10:36:56.327Z,1.42
2023-03-27T10:39:25.469Z,1.85
2023-03-27T10:41:52.747Z,1.50
2023-03-27T10:44:20.469Z,1.23
2023-03-27T10:46:47.485Z,1.00
2023-03-27T10:49:25.492Z,1.05
2023-03-27T10:52:11.430Z,1.10
2023-03-27T10:54:53.795Z,1.20
2023-03-27T10:57:23.585Z,1.63
2023-03-27T10:59:53.846Z,1.50
2023-03-27T11:02:25.041Z,1.55
2023-03-27T11:04:52.151Z,1.30
2023-03-27T11:07:22.159Z,1.27
2023-03-27T11:09:53.363Z,1.23
2023-03-27T11:12:20.645Z,1.10
2023-03-27T11:15:07.379Z,1.20
2023-03-27T11:17:42.504Z,0.95
2023-03-27T11:20:19.386Z,0.90
2023-03-27T11:22:51.427Z,1.25
2023-03-27T11:25:36.458Z,1.10
2023-03-27T11:28:20.986Z,0.90
2023-03-27T11:31:12.085Z,1.45
2023-03-27T11:33:45.288Z,1.35
2023-03-27T11:36:31.105Z,1.17
2023-03-27T11:39:18.391Z,0.90
2023-03-27T11:41:47.439Z,1.08
2023-03-27T11:44:14.458Z,1.08
2023-03-27T11:46:48.467Z,1.38
2023-03-27T11:49:28.284Z,1.10
2023-03-27T11:51:57.545Z,0.90
2023-03-27T11:54:37.941Z,1.15
2023-03-27T11:57:06.255Z,0.82
2023-03-27T11:59:33.319Z,1.48
2023-03-27T12:02:03.341Z,1.10
2023-03-27T12:04:32.644Z,1.20
2023-03-27T12:07:04.981Z,1.30
2023-03-27T12:09:40.334Z,0.98
2023-03-27T12:12:16.792Z,0.90
2023-03-27T12:14:45.322Z,1.20
2023-03-27T12:17:17.608Z,1.67
2023-03-27T12:19:47.701Z,1.00
2023-03-27T12:25:06.868Z,0.80
2023-03-27T12:27:40.108Z,0.80
2023-03-27T12:30:14.772Z,1.42
2023-03-27T12:33:00.572Z,1.17
2023-03-27T12:35:29.139Z,1.10
2023-03-27T12:38:03.151Z,1.25
2023-03-27T12:40:31.272Z,1.10
2023-03-27T12:43:05.968Z,1.02
2023-03-27T12:45:36.520Z,1.15
2023-03-27T12:48:11.664Z,0.93
2023-03-27T12:50:42.625Z,0.90
2023-03-27T12:53:27.967Z,1.05
2023-03-27T12:56:13.779Z,1.17
2023-03-27T12:58:41.009Z,1.23
2023-03-27T13:01:09.306Z,1.20
2023-03-27T13:03:42.658Z,0.88
2023-03-27T13:06:31.297Z,1.17
2023-03-27T13:09:28.312Z,1.25
2023-03-27T13:12:02.700Z,1.55
2023-03-27T13:14:36.660Z,2.28
2023-03-27T13:17:22.625Z,1.58
2023-03-27T13:20:09.785Z,2.90
2023-03-27T13:22:55.433Z,1.25
2023-03-27T13:25:26.213Z,1.20
2023-03-27T13:28:05.680Z,1.00
2023-03-27T13:30:43.010Z,0.90
2023-03-27T13:33:16.305Z,0.70
2023-03-27T13:35:52.751Z,0.90
2023-03-27T13:38:40.455Z,1.00
2023-03-27T13:41:26.363Z,0.80
2023-03-27T13:43:53.985Z,0.90
2023-03-27T13:46:24.457Z,0.75
2023-03-27T13:49:10.693Z,0.90
2023-03-27T13:51:47.859Z,0.90
2023-03-27T13:54:33.500Z,0.90
2023-03-27T13:57:09.840Z,0.88
2023-03-27T13:59:38.664Z,0.82
2023-03-27T14:02:27.043Z,0.85
2023-03-27T14:05:12.709Z,0.77
2023-03-27T14:07:58.387Z,1.13
2023-03-27T14:10:29.839Z,0.82
2023-03-27T14:12:59.923Z,0.73
2023-03-27T14:15:32.777Z,0.70
2023-03-27T14:18:06.214Z,0.70
2023-03-27T14:20:34.864Z,1.00
2023-03-27T14:23:04.691Z,0.85
2023-03-27T14:25:36.402Z,0.80
2023-03-27T14:28:03.532Z,0.95
2023-03-27T14:30:31.482Z,1.40
2023-03-27T14:32:59.518Z,1.00
2023-03-27T14:35:29.054Z,1.10
2023-03-27T14:37:57.279Z,0.80
2023-03-27T14:40:27.271Z,0.80
2023-03-27T14:42:55.325Z,0.70
2023-03-27T14:45:23.597Z,0.73
2023-03-27T14:47:52.908Z,0.80
2023-03-27T14:50:20.133Z,0.90
2023-03-27T14:52:50.705Z,0.95
2023-03-27T14:57:48.896Z,1.65
2023-03-27T15:00:16.898Z,1.30
2023-03-27T15:02:44.251Z,1.20
2023-03-27T15:05:12.587Z,1.17
2023-03-27T15:07:41.989Z,1.00
2023-03-27T15:10:12.339Z,1.23
2023-03-27T15:12:45.650Z,0.82
2023-03-27T15:15:21.893Z,1.15
2023-03-27T15:17:50.680Z,1.08
2023-03-27T15:20:18.481Z,1.30
2023-03-27T15:22:47.350Z,0.90
2023-03-27T15:25:17.473Z,1.25
2023-03-27T15:27:47.515Z,0.65
2023-03-27T15:30:25.311Z,0.90
2023-03-27T15:32:54.834Z,0.95
2023-03-27T15:35:35.566Z,0.93
2023-03-27T15:38:03.134Z,0.80
2023-03-27T15:40:36.886Z,1.00
2023-03-27T15:43:07.247Z,1.90
2023-03-27T15:45:39.790Z,1.17
2023-03-27T15:48:07.077Z,1.35
2023-03-27T15:50:34.393Z,0.75
2023-03-27T15:53:01.724Z,0.88
2023-03-27T15:55:42.443Z,2.45
2023-03-27T15:58:36.064Z,1.00
2023-03-27T16:01:03.498Z,1.13
2023-03-27T16:03:48.331Z,1.00
2023-03-27T16:06:24.399Z,0.60
2023-03-27T16:08:52.042Z,0.90
2023-03-27T16:11:37.550Z,0.77
2023-03-27T16:14:04.587Z,0.52
2023-03-27T16:16:33.811Z,0.65
2023-03-27T16:19:04.643Z,0.60
2023-03-27T16:21:33.181Z,0.85
2023-03-27T16:24:00.258Z,0.88
2023-03-27T16:26:27.449Z,0.93
2023-03-27T16:28:56.302Z,0.73
2023-03-27T16:31:23.414Z,0.60
2023-03-27T16:33:51.076Z,0.65
2023-03-27T16:36:31.098Z,0.80
2023-03-27T16:38:58.219Z,0.93
2023-03-27T16:41:25.237Z,0.57
2023-03-27T16:43:52.335Z,0.60
2023-03-27T16:46:22.013Z,0.70
2023-03-27T16:48:51.085Z,1.60
2023-03-27T16:51:19.043Z,0.50
2023-03-27T16:53:46.132Z,0.90
2023-03-27T16:56:13.418Z,0.80
2023-03-27T16:58:40.618Z,0.80
2023-03-27T17:01:08.161Z,1.08
2023-03-27T17:03:37.138Z,2.97
2023-03-27T17:06:08.811Z,0.93
2023-03-27T17:08:36.000Z,0.90
2023-03-27T17:11:07.604Z,0.95
2023-03-27T17:13:34.637Z,0.80
2023-03-27T17:16:01.676Z,0.95
2023-03-27T17:18:28.759Z,0.80
2023-03-27T17:20:55.897Z,0.88
2023-03-27T17:23:23.085Z,0.85
2023-03-27T17:25:50.286Z,0.70
2023-03-27T17:28:17.460Z,0.95
2023-03-27T17:30:56.754Z,2.60
2023-03-27T17:33:28.538Z,0.90
2023-03-27T17:35:56.914Z,0.70
2023-03-27T17:38:24.502Z,1.02
2023-03-27T17:40:51.860Z,1.00
2023-03-27T17:43:19.038Z,1.20
2023-03-27T17:45:46.174Z,1.20
2023-03-27T17:48:13.199Z,1.00
2023-03-27T17:50:40.354Z,1.15
2023-03-27T17:53:07.881Z,1.00
2023-03-27T17:55:37.197Z,1.00
2023-03-27T17:58:09.249Z,1.08
2023-03-27T18:00:37.184Z,1.00
2023-03-27T18:03:04.502Z,1.10
2023-03-27T18:05:31.751Z,1.00
2023-03-27T18:07:58.934Z,1.10
2023-03-27T18:10:26.086Z,1.23
2023-03-27T18:12:53.113Z,1.40
2023-03-27T18:15:20.154Z,1.50
2023-03-27T18:17:47.199Z,1.23
2023-03-27T18:20:14.563Z,1.75
2023-03-27T18:22:41.796Z,1.77
2023-03-27T18:25:09.495Z,1.88
2023-03-27T18:27:40.294Z,1.05
2023-03-27T18:30:09.113Z,1.10
2023-03-27T18:32:36.238Z,1.10
2023-03-27T18:35:03.763Z,0.90
2023-03-27T18:37:30.811Z,1.25
2023-03-27T18:39:57.833Z,1.15
2023-03-27T18:42:25.404Z,1.50
2023-03-27T18:44:52.484Z,1.35
2023-03-27T18:47:19.512Z,1.10
2023-03-27T18:49:46.570Z,1.10
2023-03-27T18:52:14.742Z,1.52
2023-03-27T18:54:43.306Z,1.48
2023-03-27T18:57:11.671Z,2.08
2023-03-27T18:59:38.681Z,2.05
2023-03-27T19:02:06.014Z,1.55
2023-03-27T19:04:33.173Z,3.25
2023-03-27T19:07:01.214Z,1.10
2023-03-27T19:09:38.596Z,1.20
2023-03-27T19:12:08.451Z,0.90
2023-03-27T19:14:35.504Z,1.27
2023-03-27T19:17:02.614Z,1.13
2023-03-27T19:19:31.758Z,1.20
2023-03-27T19:21:58.829Z,0.95
2023-03-27T19:24:25.872Z,0.88
2023-03-27T19:26:52.985Z,1.00
2023-03-27T19:29:20.197Z,0.85
2023-03-27T19:31:47.377Z,1.05
2023-03-27T19:34:14.642Z,0.90
2023-03-27T19:36:41.716Z,1.08
2023-03-27T19:39:09.263Z,0.98
2023-03-27T19:41:36.335Z,1.15
2023-03-27T19:44:03.999Z,1.08
2023-03-27T19:46:31.125Z,1.38
2023-03-27T19:48:58.183Z,1.23
2023-03-27T19:51:25.566Z,1.23
2023-03-27T19:53:52.709Z,1.55
2023-03-27T19:56:19.800Z,1.10
2023-03-27T19:58:46.871Z,1.00
2023-03-27T20:01:13.997Z,9.35
2023-03-27T20:03:41.307Z,2.42
2023-03-27T20:06:13.249Z,1.35
2023-03-27T20:08:42.378Z,1.00
2023-03-27T20:11:09.462Z,1.10
2023-03-27T20:13:48.938Z,1.10
2023-03-27T20:16:21.043Z,0.98
2023-03-27T20:18:55.177Z,1.17
2023-03-27T20:21:25.515Z,1.17
2023-03-27T20:23:56.103Z,1.45
2023-03-27T20:28:50.945Z,1.27
2023-03-27T20:31:18.634Z,1.58
2023-03-27T20:33:46.070Z,1.52
2023-03-27T20:36:13.730Z,2.20
2023-03-27T20:38:40.800Z,2.05
2023-03-27T20:41:07.977Z,1.98
2023-03-27T20:43:35.417Z,2.25
2023-03-27T20:46:02.989Z,2.20
2023-03-27T20:48:40.328Z,2.40
2023-03-27T20:51:14.569Z,2.58
2023-03-27T20:53:45.801Z,7.72
2023-03-27T20:56:14.249Z,3.22
2023-03-27T20:58:41.651Z,2.70
2023-03-27T21:01:09.404Z,2.47
2023-03-27T21:03:37.344Z,2.22
2023-03-27T21:06:11.118Z,2.13
2023-03-27T21:08:38.390Z,2.30
2023-03-27T21:11:05.723Z,2.30
2023-03-27T21:13:32.819Z,2.00
2023-03-27T21:16:00.174Z,2.15
2023-03-27T21:18:27.681Z,1.95
2023-03-27T21:20:54.741Z,1.70
2023-03-27T21:23:21.963Z,2.10
2023-03-27T21:25:50.605Z,2.10
2023-03-27T21:28:17.948Z,2.75
2023-03-27T21:30:46.840Z,7.68
2023-03-27T21:33:18.590Z,3.20
2023-03-27T21:35:46.817Z,2.30
2023-03-27T21:38:14.493Z,2.17
2023-03-27T21:40:41.621Z,2.38
2023-03-27T21:43:09.101Z,2.50
2023-03-27T21:45:36.519Z,2.55
2023-03-27T21:48:03.850Z,2.67
2023-03-27T21:50:31.199Z,3.00
2023-03-27T21:52:58.250Z,3.20
2023-03-27T21:55:25.364Z,4.45
2023-03-27T21:57:52.576Z,3.20
2023-03-27T22:00:20.158Z,3.00
2023-03-27T22:02:47.306Z,3.20
2023-03-27T22:05:14.389Z,3.28
2023-03-27T22:07:41.717Z,3.78
2023-03-27T22:10:08.936Z,3.95
2023-03-27T22:12:36.409Z,4.15
2023-03-27T22:15:03.509Z,3.90
2023-03-27T22:17:30.821Z,3.70
2023-03-27T22:19:59.058Z,3.40
2023-03-27T22:22:26.386Z,4.03
2023-03-27T22:24:53.451Z,4.15
2023-03-27T22:27:20.536Z,4.07
2023-03-27T22:29:47.634Z,4.40
2023-03-27T22:32:14.715Z,3.90
2023-03-27T22:34:41.771Z,4.25
2023-03-27T22:37:08.862Z,4.45
2023-03-27T22:39:36.356Z,4.60
2023-03-27T22:42:03.438Z,4.82
2023-03-27T22:44:31.120Z,4.35
2023-03-27T22:46:59.154Z,4.35
2023-03-27T22:49:26.533Z,3.90
2023-03-27T22:51:53.566Z,5.05
2023-03-27T22:54:20.585Z,4.43
2023-03-27T22:56:47.742Z,3.72
2023-03-27T22:59:15.485Z,4.30
2023-03-27T23:01:42.640Z,3.90
2023-03-27T23:04:09.715Z,3.97
2023-03-27T23:06:36.755Z,4.03
2023-03-27T23:09:03.822Z,3.50
2023-03-27T23:11:31.274Z,3.45
2023-03-27T23:13:58.362Z,3.30
2023-03-27T23:16:25.489Z,3.50
2023-03-27T23:18:52.551Z,3.55
2023-03-27T23:21:19.682Z,3.33
2023-03-27T23:23:46.845Z,3.67
2023-03-27T23:26:13.986Z,3.50
2023-03-27T23:28:41.693Z,3.45
2023-03-27T23:31:11.067Z,3.38
2023-03-27T23:33:39.266Z,3.08
2023-03-27T23:36:13.648Z,3.42
2023-03-27T23:38:41.773Z,3.55
2023-03-27T23:41:09.091Z,4.32
2023-03-27T23:43:36.144Z,3.05
2023-03-27T23:46:04.916Z,3.15
2023-03-27T23:48:32.056Z,3.80
2023-03-27T23:50:59.124Z,3.63
2023-03-27T23:53:26.656Z,3.35
2023-03-27T23:55:54.185Z,3.63
2023-03-27T23:58:21.420Z,3.65
